Terminal Aerodrome Forecast
Issued by NWS

Home | Current Version | Previous Version | Text Only | Print | Product List | Glossary On
Versions: 1 2 3 4 5 6 7 8 9 10 11 12 13 14 15 16 17 18 19 20 21 22 23 24 25 26
000
FTUS46 KSEW 210904 AAA
TAFHQM
TAF AMD
KHQM 210904Z 2109/2206 13018G24KT 5SM -RA BR BKN021 BKN035 OVC040
      WS020/20050KT
     FM211200 14030G45KT 2SM RA BR SCT005 BKN009 OVC015
      WS020/19055KT
     FM211800 21018G30KT 6SM -SHRA BR SCT012 BKN025
     FM212300 21015G24KT P6SM VCSH SCT025 BKN050=

USA.gov is the U.S. government's official web portal to all federal, state and local government web resources and services.